Pranchita, Brazil
Current Conditions -  °F | °C
As of 7:00 PM on Sunday 23 Nov 2014 (Local Time) from SARI Reporting Station
Clear Clear  
Wind Chill: 84°   Ceiling: Unl
Heat Index: 86°   Visibility: 6mi
Dew Point: 64°   Wind: 7mph
Humidity: 51%   Direction: 180°S
Pressure: 29.88"   Gusts: NA
Location:  26.02°S, 53.74°W
Report Text: SARI 232100Z 18006KT CAVOK 29/18 Q1012
Loading
Personal Weather Stations






























Interactive Weather Map New forecast layout! Learn more

10-Day Weather Forecast

Advertisements
Track Severe Weather on mobile